Terminal Aerodrome Forecast
Issued by NWS Omaha/Valley, NE

Home | Current Version | Previous Version | Graphics & Text | Print | Product List | Glossary On
Versions: 1 2 3 4 5 6 7 8 9 10 11 12 13
000
FTUS43 KOAX 240520
TAFOFK
TAF
KOFK 240520Z 2406/2506 30005KT P6SM SKC
     FM241600 29010KT P6SM FEW250
     FM241900 30015G23KT P6SM SCT060
     FM250100 33009KT P6SM FEW250
     FM250300 33005KT P6SM FEW250=

USA.gov is the U.S. government's official web portal to all federal, state and local government web resources and services.